Shawville, Pennsylvania
Current Conditions -  °F | °C
As of 11:36 PM on Sunday 25 Jan 2015 (Local Time) from KFIG Reporting Station
Light Snow Light Snow  
Wind Chill: 14°   Ceiling: 900
Heat Index: 25°   Visibility: 3mi
Dew Point: 22°   Wind: 12mph
Humidity: 88%   Direction: 60°ENE
Pressure: 29.84"   Gusts: NA
Location:  41.07°N, 78.36°W
Report Text: KFIG 260436Z AUTO 06010KT 3SM -SN BR BKN009 BKN014 OVC027 M04/M06 A2984 RMK AO2 CIG 007V013 P0001 T10391056
Loading
Personal Weather Stations






























Interactive Weather Map New forecast layout! Learn more

10-Day Weather Forecast

Advertisements
Track Severe Weather on mobile